Time;durP1;ratioP1;P1;durP2;ratioP2;P2;SDS_P1;SDS_P2;PMS_P1;PMS_P2;Temp;Humidity;BMP_temperature;BMP_pressure;BME280_temperature;BME280_humidity;BME280_pressure;Samples;Min_cycle;Max_cycle;Signal;HPM_P1;HPM_P2
2023/11/26 00:00:43;;;;;;;;;;;;;;;;;;;;;
2023/11/26 00:05:07;;;;;;;12.70;8.10;;;;;;;1.06;91.85;99194.95;126988;1289;128650;-62
2023/11/26 00:09:11;;;;;;;14.70;8.50;;;;;;;1.05;91.39;99198.14;126182;1292;115276;-58
2023/11/26 00:13:12;;;;;;;17.00;9.70;;;;;;;1.06;91.83;99203.92;121786;1303;5452216;-58
2023/11/26 00:21:31;;;;;;;;;;;;;;;;;;;;;
2023/11/26 00:25:34;;;;;;;13.10;8.20;;;;;;;1.08;91.60;99216.67;128444;1288;128855;-59
2023/11/26 00:30:01;;;;;;;13.50;9.60;;;;;;;1.11;92.07;99224.89;127834;1292;115463;-60
2023/11/26 00:33:44;;;;;;;;;;;;;;;;;;;;;
2023/11/26 00:37:47;;;;;;;18.60;10.90;;;;;;;1.14;91.83;99232.73;126175;1314;114881;-58
2023/11/26 00:41:29;;;;;;;;;;;;;;;;;;;;;
2023/11/26 00:45:32;;;;;;;17.90;11.50;;;;;;;1.14;91.84;99242.02;124758;1317;128920;-58
2023/11/26 00:53:58;;;;;;;16.30;12.10;;;;;;;1.14;91.75;99253.81;126133;1298;637617;-63
2023/11/26 00:58:02;;;;;;;20.30;14.10;;;;;;;1.13;92.13;99255.25;127897;1281;128804;-60
2023/11/26 01:02:07;;;;;;;17.60;12.60;;;;;;;1.13;92.02;99258.08;126598;1284;115477;-58
2023/11/26 01:05:54;;;;;;;;;;;;;;;;;;;;;
2023/11/26 01:14:06;;;;;;;;;;;;;;;;;;;;;
2023/11/26 01:18:09;;;;;;;19.10;11.50;;;;;;;0.94;91.31;99276.17;127691;1282;129102;-58
2023/11/26 01:22:10;;;;;;;;;;;;;;;;;;;;;
2023/11/26 01:26:27;;;;;;;19.90;11.80;;;;;;;0.85;91.46;99283.25;121487;1305;5559143;-58
2023/11/26 01:34:52;;;;;;;18.00;12.40;;;;;;;0.87;91.72;99291.98;126352;1293;636941;-58
2023/11/26 01:38:45;;;;;;;;;;;;;;;;;;;;;
2023/11/26 01:42:49;;;;;;;17.70;12.20;;;;;;;0.85;91.70;99299.25;126764;1288;115419;-58
2023/11/26 01:50:51;;;;;;;15.30;9.90;;;;;;;0.75;91.17;99311.98;125309;1302;115057;-59
2023/11/26 01:59:20;;;;;;;11.30;8.10;;;;;;;0.57;91.04;99309.61;126311;1296;636640;-59
2023/11/26 02:03:23;;;;;;;11.00;8.40;;;;;;;0.48;90.73;99318.27;128669;1273;128264;-58
2023/11/26 02:07:26;;;;;;;12.30;9.50;;;;;;;0.42;90.97;99327.02;129085;1269;115303;-58
2023/11/26 02:11:08;;;;;;;;;;;;;;;0.36;90.97;99331.73;124592;1295;5435746;-58
2023/11/26 02:23:35;;;;;;;;;;;;;;;;;;;;;
2023/11/26 02:27:39;;;;;;;15.00;11.70;;;;;;;0.38;91.67;99336.95;126413;1289;115379;-60
2023/11/26 02:31:41;;;;;;;14.10;10.50;;;;;;;0.41;91.80;99337.21;121715;1296;5434643;-59
2023/11/26 02:39:54;;;;;;;15.70;11.00;;;;;;;0.47;92.02;99347.96;126230;1306;635258;-58
2023/11/26 02:43:57;;;;;;;22.90;11.60;;;;;;;0.47;91.85;99356.23;128027;1280;129014;-59
2023/11/26 02:51:55;;;;;;;18.30;12.60;;;;;;;0.51;91.94;99364.93;122531;1292;5431155;-58
2023/11/26 02:55:57;;;;;;;16.40;11.40;;;;;;;0.53;91.78;99361.89;125371;1320;114927;-60
2023/11/26 02:59:56;;;;;;;;;;;;;;;;;;;;;
2023/11/26 03:03:58;;;;;;;14.40;10.90;;;;;;;0.54;91.73;99370.30;124458;1313;129777;-57
2023/11/26 03:15:53;;;;;;;;;;;;;;;;;;;;;
2023/11/26 03:19:49;;;;;;;15.90;10.70;;;;;;;0.54;91.96;99386.29;127956;1279;114918;-59
2023/11/26 03:27:55;;;;;;;11.70;9.80;;;;;;;0.58;91.95;99391.44;122537;1313;114894;-59
2023/11/26 03:31:57;;;;;;;15.80;9.90;;;;;;;0.59;91.96;99389.31;125251;1317;114873;-57
2023/11/26 03:40:20;;;;;;;13.70;8.90;;;;;;;0.56;91.38;99399.59;126444;1294;636366;-58
2023/11/26 03:44:01;;;;;;;13.20;8.40;;;;;;;0.51;91.35;99405.67;129004;1272;129124;-58
2023/11/26 03:48:03;;;;;;;;;;;;;;;;;;;;;
2023/11/26 03:52:08;;;;;;;14.50;8.20;;;;;;;0.47;91.24;99414.03;127491;1286;114940;-58
2023/11/26 03:56:10;;;;;;;15.10;9.90;;;;;;;0.47;91.67;99417.02;124347;1292;114942;-58
2023/11/26 04:00:12;;;;;;;13.30;9.50;;;;;;;0.48;91.71;99415.59;126007;1316;115197;-58
2023/11/26 04:04:01;;;;;;;15.20;10.20;;;;;;;0.47;91.54;99420.01;125316;1324;115270;-57
2023/11/26 04:08:03;;;;;;;15.70;10.50;;;;;;;0.47;91.67;99429.85;124544;1313;129873;-59
2023/11/26 04:16:07;;;;;;;11.40;9.20;;;;;;;0.48;91.46;99446.69;126150;1293;636726;-59
2023/11/26 04:20:09;;;;;;;14.40;9.80;;;;;;;0.46;91.62;99447.23;128124;1279;129068;-58
2023/11/26 04:24:11;;;;;;;12.90;9.50;;;;;;;0.49;91.78;99448.25;128586;1276;117407;-58
2023/11/26 04:27:53;;;;;;;12.90;9.50;;;;;;;0.51;92.05;99450.66;123849;1283;5424297;-57
2023/11/26 04:31:34;;;;;;;12.10;7.90;;;;;;;0.56;91.67;99460.39;126551;1305;114948;-57
2023/11/26 04:35:37;;;;;;;11.00;7.50;;;;;;;0.57;91.77;99466.52;126495;1309;114830;-58
2023/11/26 04:39:37;;;;;;;10.50;7.10;;;;;;;0.57;91.64;99474.59;125380;1320;114908;-59
2023/11/26 04:48:03;;;;;;;9.90;7.00;;;;;;;0.58;91.46;99474.59;125637;1297;636971;-57
2023/11/26 04:52:06;;;;;;;15.20;7.20;;;;;;;0.57;91.73;99486.20;127835;1283;128984;-58
2023/11/26 04:56:07;;;;;;;11.70;6.50;;;;;;;0.57;91.68;99490.23;127311;1302;115279;-58
2023/11/26 05:00:03;;;;;;;13.70;7.70;;;;;;;0.56;91.40;99505.02;124046;1279;5479744;-59
2023/11/26 05:04:13;;;;;;;10.30;6.20;;;;;;;0.55;91.70;99509.95;126929;1305;115025;-59
2023/11/26 05:08:09;;;;;;;;;;;;;;;;;;;;;
2023/11/26 05:12:05;;;;;;;7.30;5.10;;;;;;;0.54;91.56;99523.15;125558;1303;129833;-59
2023/11/26 05:15:57;;;;;;;9.00;6.20;;;;;;;0.51;91.58;99525.14;125282;1303;115022;-59
2023/11/26 05:19:47;;;;;;;;;;;;;;;;;;;;;
2023/11/26 05:28:15;;;;;;;8.60;5.90;;;;;;;0.49;91.44;99541.00;125808;1301;637396;-58
2023/11/26 05:32:17;;;;;;;9.70;6.00;;;;;;;0.42;91.28;99550.79;127583;1284;128705;-58
2023/11/26 05:36:05;;;;;;;;;;;;;;;0.36;90.93;99554.59;126602;1298;114818;-57
2023/11/26 05:39:58;;;;;;;7.20;5.60;;;;;;;0.32;91.24;99557.15;122762;1292;5439409;-59
2023/11/26 05:43:58;;;;;;;15.50;9.20;;;;;;;0.29;91.36;99560.70;125310;1318;115395;-60
2023/11/26 05:47:59;;;;;;;13.50;8.50;;;;;;;0.25;91.13;99566.06;125092;1308;115073;-59
2023/11/26 05:52:01;;;;;;;8.50;5.90;;;;;;;0.20;90.97;99575.98;124746;1311;129256;-59
2023/11/26 06:00:16;;;;;;;;;;;;;;;;;;;;;
2023/11/26 06:04:22;;;;;;;16.00;8.20;;;;;;;-0.13;90.17;99586.23;128094;1278;128837;-58
2023/11/26 06:08:22;;;;;;;16.30;10.00;;;;;;;-0.21;90.56;99591.27;126896;1305;115227;-59
2023/11/26 06:16:30;;;;;;;14.40;7.90;;;;;;;-0.25;91.06;99607.15;125283;1315;114890;-59
2023/11/26 06:20:31;;;;;;;9.50;5.90;;;;;;;-0.23;91.35;99609.92;123869;1332;114921;-59
2023/11/26 06:24:21;;;;;;;9.40;5.90;;;;;;;-0.19;91.19;99616.70;123342;1338;115036;-59
2023/11/26 06:28:14;;;;;;;7.20;5.00;;;;;;;-0.16;91.17;99617.35;123176;1325;129633;-59
2023/11/26 06:36:47;;;;;;;7.10;4.70;;;;;;;-0.05;91.77;99628.57;125743;1301;635766;-59
2023/11/26 06:40:47;;;;;;;;;;;;;;;;;;;;;
2023/11/26 06:45:04;;;;;;;8.00;4.60;;;;;;;-0.05;91.13;99633.14;125650;1302;116614;-58
2023/11/26 06:53:28;;;;;;;10.40;6.90;;;;;;;-0.07;91.15;99643.17;126413;1295;635961;-58
2023/11/26 07:01:38;;;;;;;6.90;5.00;;;;;;;-0.15;90.79;99661.55;126084;1296;115205;-59
2023/11/26 07:14:06;;;;;;;9.80;5.20;;;;;;;-0.03;90.73;99682.96;126451;1294;635966;-60
2023/11/26 07:17:59;;;;;;;;;;;;;;;;;;;;;
2023/11/26 07:21:52;;;;;;;8.40;6.50;;;;;;;0.03;90.78;99692.52;126437;1293;115364;-58
2023/11/26 07:25:44;;;;;;;;;;;;;;;;;;;;;
2023/11/26 07:29:46;;;;;;;9.30;6.10;;;;;;;0.07;90.19;99702.45;125620;1308;114902;-58
2023/11/26 07:33:48;;;;;;;11.40;7.00;;;;;;;0.11;90.52;99708.70;124700;1309;114991;-58
2023/11/26 07:42:14;;;;;;;9.80;7.20;;;;;;;0.14;90.32;99717.45;126323;1297;636722;-59
2023/11/26 07:46:18;;;;;;;9.50;7.10;;;;;;;0.21;90.52;99722.43;128229;1278;128710;-58
2023/11/26 07:54:22;;;;;;;10.80;7.00;;;;;;;0.32;90.12;99734.54;122552;1292;5444387;-59
2023/11/26 07:58:24;;;;;;;13.40;9.00;;;;;;;0.30;89.71;99736.86;124733;1326;114928;-58
2023/11/26 08:02:22;;;;;;;;;;;;;;;;;;;;;
2023/11/26 08:06:21;;;;;;;;;;;;;;;;;;;;;
2023/11/26 08:14:28;;;;;;;11.60;7.30;;;;;;;0.76;89.82;99755.73;126223;1298;636454;-58
2023/11/26 08:18:30;;;;;;;31.90;15.10;;;;;;;0.85;89.91;99758.91;129402;1262;128431;-58
2023/11/26 08:22:24;;;;;;;32.80;14.90;;;;;;;0.97;90.01;99760.63;128511;1271;115335;-59
2023/11/26 08:34:51;;;;;;;9.70;7.60;;;;;;;1.27;89.52;99771.30;126583;1302;636175;-63
2023/11/26 08:38:53;;;;;;;13.00;7.90;;;;;;;1.45;89.65;99778.16;127918;1292;128854;-64
2023/11/26 08:42:58;;;;;;;17.50;8.20;;;;;;;1.62;88.93;99779.91;126318;1296;115289;-64
2023/11/26 08:51:13;;;;;;;13.60;7.10;;;;;;;1.88;88.31;99794.14;126323;1295;635152;-63
2023/11/26 08:59:18;;;;;;;5.60;4.30;;;;;;;2.03;87.99;99804.38;128580;1274;115288;-63
2023/11/26 09:03:22;;;;;;;9.60;5.90;;;;;;;2.14;87.77;99804.64;123632;1280;5425112;-63
2023/11/26 09:15:48;;;;;;;6.10;4.10;;;;;;;2.53;86.30;99806.73;128859;1288;128723;-63
2023/11/26 09:23:52;;;;;;;;;;;;;;;;;;;;;
2023/11/26 09:27:54;;;;;;;8.10;4.80;;;;;;;2.62;85.35;99813.92;125914;1297;114914;-63
2023/11/26 09:36:19;;;;;;;7.70;4.40;;;;;;;2.76;85.31;99801.23;126812;1292;637593;-64
2023/11/26 09:40:21;;;;;;;8.40;6.20;;;;;;;2.83;85.36;99795.59;128357;1273;128893;-64
2023/11/26 09:44:24;;;;;;;8.70;5.10;;;;;;;2.86;84.96;99798.33;127544;1295;115262;-66
2023/11/26 09:48:24;;;;;;;;;;;;;;;;;;;;;
2023/11/26 09:52:15;;;;;;;;;;;;;;;;;;;;;
2023/11/26 10:00:41;;;;;;;21.10;8.60;;;;;;;2.58;84.02;99797.98;126477;1295;635910;-63
2023/11/26 10:04:57;;;;;;;14.90;7.90;;;;;;;2.47;83.97;99798.43;128609;1272;128805;-64
2023/11/26 10:08:58;;;;;;;;;;;;;;;;;;;;;
2023/11/26 10:12:54;;;;;;;;;;;;;;;;;;;;;
2023/11/26 10:17:11;;;;;;;24.10;11.80;;;;;;;2.18;83.37;99803.88;125890;1298;116425;-65
2023/11/26 10:21:17;;;;;;;;;;;;;;;;;;;;;
2023/11/26 10:25:11;;;;;;;;;;;;;;;;;;;;;
2023/11/26 10:29:40;;;;;;;18.80;7.90;;;;;;;2.01;82.52;99798.61;126363;1295;637070;-63
2023/11/26 10:33:56;;;;;;;24.50;10.90;;;;;;;1.86;82.69;99796.11;128430;1276;128548;-66
2023/11/26 10:38:01;;;;;;;24.60;10.80;;;;;;;1.80;82.71;99788.14;128085;1281;116413;-64
2023/11/26 10:42:04;;;;;;;12.70;6.40;;;;;;;1.78;82.75;99789.07;123206;1287;5414058;-63
2023/11/26 10:46:03;;;;;;;5.70;3.70;;;;;;;1.86;83.04;99792.79;126235;1312;114849;-62
2023/11/26 10:50:17;;;;;;;10.40;5.50;;;;;;;2.03;83.31;99788.34;126041;1312;114958;-65
2023/11/26 10:54:25;;;;;;;8.00;4.50;;;;;;;2.32;83.25;99787.86;126130;1295;129789;-63
2023/11/26 10:58:28;;;;;;;6.00;3.90;;;;;;;2.55;82.90;99777.42;126056;1295;115447;-65
2023/11/26 11:02:18;;;;;;;10.60;5.10;;;;;;;2.71;82.84;99776.67;125273;1323;114869;-64
2023/11/26 11:10:31;;;;;;;4.10;2.40;;;;;;;2.89;81.38;99781.85;126308;1292;636040;-62
2023/11/26 11:14:34;;;;;;;5.70;2.90;;;;;;;2.94;81.51;99790.19;128938;1270;128834;-66
2023/11/26 11:18:37;;;;;;;7.10;3.70;;;;;;;2.97;81.21;99783.94;127768;1294;114889;-63
2023/11/26 11:22:41;;;;;;;4.10;2.60;;;;;;;2.99;81.01;99785.45;122957;1289;5424766;-63
2023/11/26 11:26:34;;;;;;;7.50;4.50;;;;;;;3.00;80.55;99787.38;125413;1304;114961;-63
2023/11/26 11:34:54;;;;;;;;;;;;;;;;;;;;;
2023/11/26 11:39:05;;;;;;;8.90;4.00;;;;;;;2.97;80.71;99807.02;128882;1270;128861;-64
2023/11/26 11:43:09;;;;;;;16.70;7.40;;;;;;;2.90;80.52;99806.15;127864;1283;115383;-64
2023/11/26 11:47:25;;;;;;;;;;;;;;;;;;;;;
2023/11/26 11:51:31;;;;;;;;;;;;;;;;;;;;;
2023/11/26 11:55:48;;;;;;;21.10;9.00;;;;;;;2.77;80.57;99815.14;124715;1310;115149;-63
2023/11/26 11:59:30;;;;;;;;;;;;;;;;;;;;;
2023/11/26 12:03:29;;;;;;;26.60;12.40;;;;;;;2.70;80.59;99810.20;123988;1332;129578;-63
2023/11/26 12:11:52;;;;;;;22.30;10.50;;;;;;;2.41;79.73;99812.48;125673;1295;637272;-62
2023/11/26 12:15:58;;;;;;;10.50;6.70;;;;;;;2.20;79.55;99814.03;127922;1283;128777;-65
2023/11/26 12:20:06;;;;;;;9.20;6.20;;;;;;;2.07;79.71;99816.08;126025;1313;115320;-64
2023/11/26 12:24:07;;;;;;;;;;;;;;;;;;;;;
2023/11/26 12:32:48;;;;;;;9.80;6.00;;;;;;;1.77;79.35;99817.77;126776;1288;642694;-63
2023/11/26 12:36:53;;;;;;;13.70;7.70;;;;;;;1.67;79.66;99819.22;127932;1293;129003;-63
2023/11/26 12:41:20;;;;;;;15.80;8.70;;;;;;;1.62;79.55;99829.37;126983;1289;115257;-61
2023/11/26 12:45:13;;;;;;;16.10;11.00;;;;;;;1.59;79.72;99836.83;121347;1315;6308906;-63
2023/11/26 12:49:16;;;;;;;18.60;12.60;;;;;;;1.58;80.19;99839.12;125263;1323;116736;-63
2023/11/26 12:53:19;;;;;;;22.10;14.40;;;;;;;1.61;80.00;99836.27;123841;1316;114973;-63
2023/11/26 13:10:09;;;;;;;11.30;6.90;;;;;;;1.74;80.24;99849.17;127932;1282;128439;-63
2023/11/26 13:14:20;;;;;;;9.80;4.10;;;;;;;1.74;79.59;99844.27;127399;1284;115368;-62
2023/11/26 13:18:25;;;;;;;12.30;7.60;;;;;;;1.69;79.62;99848.06;123249;1283;6276378;-63
2023/11/26 13:26:32;;;;;;;5.00;3.40;;;;;;;1.57;78.86;99846.71;125815;1318;114963;-64
2023/11/26 13:35:07;;;;;;;33.30;15.10;;;;;;;1.59;79.49;99844.75;125753;1297;640789;-63
2023/11/26 13:43:22;;;;;;;16.00;8.60;;;;;;;1.61;79.32;99852.62;127179;1284;115384;-62
2023/11/26 13:47:28;;;;;;;30.30;12.60;;;;;;;1.59;79.38;99850.02;122234;1292;5460735;-63
2023/11/26 13:51:31;;;;;;;20.80;11.00;;;;;;;1.60;79.37;99854.23;125285;1323;114917;-63
2023/11/26 14:03:59;;;;;;;16.60;9.20;;;;;;;1.61;79.33;99846.98;127128;1281;128523;-62
2023/11/26 14:08:02;;;;;;;15.00;6.90;;;;;;;1.62;79.17;99852.95;126667;1290;115379;-62
2023/11/26 14:12:06;;;;;;;14.90;6.80;;;;;;;1.59;79.20;99858.81;121856;1295;5441498;-63
2023/11/26 14:16:06;;;;;;;12.80;5.80;;;;;;;1.52;78.73;99860.73;125032;1307;116052;-63
2023/11/26 14:24:32;;;;;;;22.00;10.80;;;;;;;1.44;78.64;99866.69;126462;1295;636938;-63
2023/11/26 14:28:33;;;;;;;;;;;;;;;;;;;;;
2023/11/26 14:32:35;;;;;;;10.80;5.60;;;;;;;1.33;78.51;99862.48;125935;1299;115308;-66
2023/11/26 14:36:37;;;;;;;7.90;4.60;;;;;;;1.30;78.21;99861.49;121584;1323;5436594;-63
2023/11/26 14:44:55;;;;;;;;;;;;;;;;;;;;;
2023/11/26 14:48:57;;;;;;;;;;;;;;;;;;;;;
2023/11/26 14:52:41;;;;;;;;;;;;;;;;;;;;;
2023/11/26 14:56:46;;;;;;;8.40;5.10;;;;;;;0.75;77.37;99861.56;126580;1280;6891201;-63
2023/11/26 15:00:49;;;;;;;22.40;9.90;;;;;;;0.60;77.30;99863.56;127206;1305;114886;-62
2023/11/26 15:04:50;;;;;;;17.60;8.90;;;;;;;0.45;77.72;99862.20;125897;1300;127351;-62
2023/11/26 15:13:32;;;;;;;25.40;12.40;;;;;;;0.14;77.31;99860.56;125753;1295;638634;-63
2023/11/26 15:17:34;;;;;;;;;;;;;;;;;;;;;
2023/11/26 15:21:38;;;;;;;21.60;11.80;;;;;;;-0.24;77.11;99861.92;125824;1319;115548;-63
2023/11/26 15:26:03;;;;;;;27.80;14.90;;;;;;;-0.39;77.22;99861.59;120950;1315;5462252;-60
2023/11/26 15:33:41;;;;;;;;;;;;;;;;;;;;;
2023/11/26 15:37:44;;;;;;;141.90;47.50;;;;;;;-0.78;77.36;99862.19;128117;1277;129133;-60
2023/11/26 15:41:46;;;;;;;57.90;24.40;;;;;;;-0.95;77.26;99863.05;127426;1281;115461;-60
2023/11/26 15:45:43;;;;;;;38.30;20.50;;;;;;;-1.10;77.67;99860.89;122851;1290;5423699;-63
2023/11/26 15:49:42;;;;;;;26.50;15.40;;;;;;;-1.26;77.74;99855.96;126038;1311;114896;-60
2023/11/26 15:53:47;;;;;;;26.00;15.50;;;;;;;-1.42;77.33;99855.74;125469;1319;115087;-64
2023/11/26 15:57:51;;;;;;;29.10;16.40;;;;;;;-1.55;78.18;99859.86;125662;1301;128342;-61
2023/11/26 16:01:54;;;;;;;32.40;18.30;;;;;;;-1.67;77.85;99859.26;124879;1310;115292;-60
2023/11/26 16:05:24;;;;;;;23.60;14.10;;;;;;;-1.79;78.26;99855.98;124064;1312;115007;-60
2023/11/26 16:14:03;;;;;;;;;;;;;;;;;;;;;
2023/11/26 16:17:52;;;;;;;;;;;;;;;;;;;;;
2023/11/26 16:26:09;;;;;;;27.50;16.40;;;;;;;-2.26;78.32;99871.83;121784;1296;6067889;-62
2023/11/26 16:30:37;;;;;;;21.70;12.70;;;;;;;-2.34;78.47;99873.25;124973;1323;114980;-62
2023/11/26 16:34:14;;;;;;;16.80;9.70;;;;;;;-2.41;78.79;99875.03;124810;1325;114952;-62
2023/11/26 16:38:18;;;;;;;17.10;10.00;;;;;;;-2.47;78.91;99876.63;124909;1325;114816;-61
2023/11/26 16:42:18;;;;;;;;;;;;;;;;;;;;;
2023/11/26 16:50:47;;;;;;;28.50;13.90;;;;;;;-2.63;79.54;99885.24;126213;1295;636871;-60
2023/11/26 16:54:33;;;;;;;27.40;13.10;;;;;;;-2.69;79.54;99888.74;129445;1282;127865;-60
2023/11/26 16:58:36;;;;;;;26.50;12.50;;;;;;;-2.70;79.55;99896.08;129246;1269;114776;-61
2023/11/26 17:02:35;;;;;;;;;;;;;;;;;;;;;
2023/11/26 17:06:38;;;;;;;14.50;10.20;;;;;;;-2.70;80.50;99899.05;126331;1308;114961;-60
2023/11/26 17:10:39;;;;;;;19.70;10.50;;;;;;;-2.69;80.65;99900.98;125409;1320;114971;-62
2023/11/26 17:19:04;;;;;;;20.50;11.20;;;;;;;-2.70;80.26;99892.75;126170;1294;636596;-59
2023/11/26 17:23:06;;;;;;;20.60;10.40;;;;;;;-2.71;81.21;99893.27;127991;1280;128898;-61
2023/11/26 17:27:08;;;;;;;20.00;11.30;;;;;;;-2.69;81.07;99887.86;126773;1306;115209;-60
2023/11/26 17:39:34;;;;;;;39.20;20.10;;;;;;;-2.75;81.35;99880.54;126191;1305;636133;-60
2023/11/26 17:43:27;;;;;;;;;;;;;;;;;;;;;
2023/11/26 17:47:30;;;;;;;63.40;31.80;;;;;;;-2.83;81.25;99885.80;127497;1280;115515;-61
2023/11/26 17:51:29;;;;;;;;;;;;;;;;;;;;;
2023/11/26 17:55:28;;;;;;;;;;;;;;;;;;;;;
2023/11/26 18:03:53;;;;;;;55.00;27.70;;;;;;;-3.00;81.42;99892.45;126318;1305;635641;-61
2023/11/26 18:07:56;;;;;;;49.90;23.30;;;;;;;-3.06;81.68;99904.33;127398;1303;126955;-60
2023/11/26 18:11:58;;;;;;;41.20;22.00;;;;;;;-3.10;81.96;99903.81;126841;1308;115473;-59
2023/11/26 18:20:03;;;;;;;39.70;19.10;;;;;;;-3.16;82.32;99903.30;125817;1316;114985;-61
2023/11/26 18:24:05;;;;;;;38.60;18.60;;;;;;;-3.23;82.37;99900.48;124611;1327;114975;-61
2023/11/26 18:32:33;;;;;;;52.10;26.80;;;;;;;-3.27;82.40;99900.50;125566;1295;638618;-60
2023/11/26 18:36:36;;;;;;;64.90;33.30;;;;;;;-3.34;82.76;99897.70;128794;1272;128757;-60
2023/11/26 18:40:38;;;;;;;47.50;23.70;;;;;;;-3.38;82.59;99895.77;128603;1274;116585;-62
2023/11/26 18:44:41;;;;;;;48.00;24.10;;;;;;;-3.45;82.86;99896.13;123092;1286;5433094;-62
2023/11/26 18:48:42;;;;;;;58.80;26.20;;;;;;;-3.51;82.83;99895.07;126321;1296;114842;-59
2023/11/26 18:52:41;;;;;;;;;;;;;;;;;;;;;
2023/11/26 18:56:44;;;;;;;56.40;32.40;;;;;;;-3.59;83.13;99895.23;124401;1330;115208;-59
2023/11/26 19:09:07;;;;;;;;;;;;;;;;;;;;;
2023/11/26 19:13:11;;;;;;;48.20;24.00;;;;;;;-3.73;83.73;99879.34;128437;1273;114906;-60
2023/11/26 19:17:12;;;;;;;40.60;20.00;;;;;;;-3.76;83.78;99879.50;122758;1292;5442862;-64
2023/11/26 19:21:14;;;;;;;43.70;20.90;;;;;;;-3.79;83.82;99880.54;125796;1300;114955;-60
2023/11/26 19:33:30;;;;;;;48.80;23.60;;;;;;;-3.79;84.48;99887.86;126280;1299;636176;-60
2023/11/26 19:41:26;;;;;;;53.20;25.00;;;;;;;-3.61;84.99;99880.02;126514;1303;115274;-59
2023/11/26 19:49:29;;;;;;;48.70;24.00;;;;;;;-3.33;85.77;99870.46;125274;1299;115056;-61
2023/11/26 20:01:59;;;;;;;66.90;33.80;;;;;;;-2.88;86.38;99875.67;128183;1274;128527;-61
2023/11/26 20:10:00;;;;;;;97.20;49.20;;;;;;;-2.57;87.02;99868.09;126531;1301;636051;-62
2023/11/26 20:14:03;;;;;;;91.90;44.50;;;;;;;-2.44;86.89;99865.95;128468;1276;128707;-59
2023/11/26 20:18:07;;;;;;;87.60;41.40;;;;;;;-2.31;86.80;99863.09;127793;1288;114951;-61
2023/11/26 20:22:09;;;;;;;71.20;36.50;;;;;;;-2.18;87.34;99862.86;122795;1289;5427168;-60
2023/11/26 20:26:10;;;;;;;57.30;30.20;;;;;;;-2.07;86.81;99855.63;125358;1305;114901;-61
2023/11/26 20:30:11;;;;;;;42.50;22.40;;;;;;;-1.96;86.96;99851.20;124783;1326;114875;-62
2023/11/26 20:50:48;;;;;;;31.70;16.50;;;;;;;-1.41;87.24;99835.59;128035;1282;115201;-61
2023/11/26 20:54:30;;;;;;;;;;;;;;;-1.33;87.29;99827.30;123185;1304;5437569;-60
2023/11/26 21:02:37;;;;;;;27.20;15.70;;;;;;;-1.20;87.18;99824.38;126239;1312;114932;-61
2023/11/26 21:15:14;;;;;;;28.30;16.20;;;;;;;-1.20;86.59;99802.48;125420;1311;638628;-61
2023/11/26 21:23:08;;;;;;;27.70;16.30;;;;;;;-1.43;86.45;99799.17;127344;1303;115364;-61
2023/11/26 21:27:11;;;;;;;32.60;17.70;;;;;;;-1.50;86.01;99799.95;123446;1286;5446639;-64
2023/11/26 21:47:39;;;;;;;33.20;17.50;;;;;;;-1.36;87.63;99778.09;125716;1300;638645;-60
2023/11/26 21:51:42;;;;;;;35.80;17.50;;;;;;;-1.32;87.20;99773.17;128377;1281;128412;-60
2023/11/26 22:00:13;;;;;;;35.90;18.60;;;;;;;-1.38;86.83;99776.55;126043;1297;640343;-60
2023/11/26 22:04:16;;;;;;;38.90;21.20;;;;;;;-1.48;86.81;99781.70;127980;1277;128803;-61
2023/11/26 22:08:19;;;;;;;44.50;21.50;;;;;;;-1.53;86.76;99781.06;127400;1287;114812;-60
2023/11/26 22:12:21;;;;;;;40.80;20.50;;;;;;;-1.57;86.79;99785.11;122207;1295;5411370;-63
2023/11/26 22:16:23;;;;;;;43.40;22.20;;;;;;;-1.60;86.87;99785.14;124884;1323;115048;-60
2023/11/26 22:20:15;;;;;;;;;;;;;;;;;;;;;
2023/11/26 22:28:42;;;;;;;51.20;24.30;;;;;;;-1.47;87.72;99786.61;125548;1298;637093;-77
2023/11/26 22:32:46;;;;;;;53.60;25.50;;;;;;;-1.42;87.68;99782.71;127377;1283;128968;-69
2023/11/26 22:36:48;;;;;;;45.20;22.80;;;;;;;-1.36;87.16;99783.71;126762;1301;115281;-77
2023/11/26 23:01:22;;;;;;;38.50;21.20;;;;;;;-0.94;87.91;99773.47;127434;1281;129554;-62
2023/11/26 23:05:25;;;;;;;41.10;21.40;;;;;;;-0.87;88.04;99770.95;127447;1283;115253;-75
2023/11/26 23:09:26;;;;;;;38.60;20.60;;;;;;;-0.82;88.12;99769.64;123445;1281;5425377;-77
2023/11/26 23:17:15;;;;;;;38.40;19.30;;;;;;;-0.71;88.37;99771.98;125981;1317;114967;-75
2023/11/26 23:21:16;;;;;;;33.60;17.70;;;;;;;-0.67;87.96;99773.16;125697;1317;114993;-74
2023/11/26 23:25:09;;;;;;;32.30;17.30;;;;;;;-0.63;88.02;99773.98;124969;1307;128563;-72
2023/11/26 23:29:09;;;;;;;32.90;17.50;;;;;;;-0.59;88.23;99766.05;124677;1314;116673;-73
2023/11/26 23:33:10;;;;;;;31.90;17.50;;;;;;;-0.56;88.21;99769.16;124044;1333;114912;-75
2023/11/26 23:37:12;;;;;;;32.40;16.30;;;;;;;-0.52;88.08;99766.48;124104;1332;114862;-74
2023/11/26 23:45:05;;;;;;;;;;;;;;;;;;;;;
2023/11/26 23:49:08;;;;;;;32.00;15.10;;;;;;;-0.42;88.01;99746.88;123525;1323;115394;-77
2023/11/26 23:53:09;;;;;;;31.00;16.10;;;;;;;-0.39;87.83;99745.61;124773;1329;114997;-76
